Terminal Aerodrome Forecast
Issued by NWS

Home | Current Version | Previous Version | Text Only | Print | Product List | Glossary On
Versions: 1 2 3 4 5 6 7 8 9 10 11 12 13 14 15
938
FTPA31 PHFO 270348 AAA
TAFHJH
TAF AMD
PHJH 270348Z 2704/2724 04014G24KT P6SM VCSH FEW030 BKN050
     FM270600 11012KT P6SM FEW030 SCT050
     FM272000 24007KT P6SM SCT030 BKN050
      AMD NOT SKED AFT 270400=

USA.gov is the U.S. government's official web portal to all federal, state and local government web resources and services.